sensor_id;sensor_type;location;lat;lon;timestamp;temperature;humidity
25140;DHT22;39015;48.106;-1.682;2022-12-18T00:00:31;8.50;57.70
25140;DHT22;39015;48.106;-1.682;2022-12-18T00:03:16;8.40;57.70
25140;DHT22;39015;48.106;-1.682;2022-12-18T00:06:02;8.40;57.70
25140;DHT22;39015;48.106;-1.682;2022-12-18T00:08:49;8.40;57.70
25140;DHT22;39015;48.106;-1.682;2022-12-18T00:11:34;8.40;57.70
25140;DHT22;39015;48.106;-1.682;2022-12-18T00:14:19;8.40;57.70
25140;DHT22;39015;48.106;-1.682;2022-12-18T00:17:05;8.40;57.70
25140;DHT22;39015;48.106;-1.682;2022-12-18T00:19:50;8.40;57.70
25140;DHT22;39015;48.106;-1.682;2022-12-18T00:22:35;8.40;57.80
25140;DHT22;39015;48.106;-1.682;2022-12-18T00:25:22;8.40;57.70
25140;DHT22;39015;48.106;-1.682;2022-12-18T00:28:07;8.40;57.70
25140;DHT22;39015;48.106;-1.682;2022-12-18T00:30:59;8.40;57.70
25140;DHT22;39015;48.106;-1.682;2022-12-18T00:33:45;8.40;57.70
25140;DHT22;39015;48.106;-1.682;2022-12-18T00:36:31;8.40;57.60
25140;DHT22;39015;48.106;-1.682;2022-12-18T00:39:17;8.50;57.60
25140;DHT22;39015;48.106;-1.682;2022-12-18T00:42:03;8.50;57.70
25140;DHT22;39015;48.106;-1.682;2022-12-18T00:45:07;8.50;57.60
25140;DHT22;39015;48.106;-1.682;2022-12-18T00:47:52;8.50;57.60
25140;DHT22;39015;48.106;-1.682;2022-12-18T00:50:38;8.40;57.60
25140;DHT22;39015;48.106;-1.682;2022-12-18T00:53:23;8.40;57.60
25140;DHT22;39015;48.106;-1.682;2022-12-18T00:56:09;8.40;57.60
25140;DHT22;39015;48.106;-1.682;2022-12-18T00:58:55;8.40;57.60
25140;DHT22;39015;48.106;-1.682;2022-12-18T01:01:41;8.40;57.60
25140;DHT22;39015;48.106;-1.682;2022-12-18T01:04:26;8.40;57.70
25140;DHT22;39015;48.106;-1.682;2022-12-18T01:07:12;8.40;57.60
25140;DHT22;39015;48.106;-1.682;2022-12-18T01:09:57;8.40;57.70
25140;DHT22;39015;48.106;-1.682;2022-12-18T01:12:42;8.40;57.60
25140;DHT22;39015;48.106;-1.682;2022-12-18T01:15:29;8.40;57.70
25140;DHT22;39015;48.106;-1.682;2022-12-18T01:18:14;8.40;57.70
25140;DHT22;39015;48.106;-1.682;2022-12-18T01:21:00;8.40;57.70
25140;DHT22;39015;48.106;-1.682;2022-12-18T01:23:45;8.40;57.70
25140;DHT22;39015;48.106;-1.682;2022-12-18T01:26:31;8.40;57.70
25140;DHT22;39015;48.106;-1.682;2022-12-18T01:29:16;8.40;57.70
25140;DHT22;39015;48.106;-1.682;2022-12-18T01:32:03;8.40;57.70
25140;DHT22;39015;48.106;-1.682;2022-12-18T01:34:49;8.40;57.70
25140;DHT22;39015;48.106;-1.682;2022-12-18T01:37:34;8.30;57.70
25140;DHT22;39015;48.106;-1.682;2022-12-18T01:40:19;8.30;57.60
25140;DHT22;39015;48.106;-1.682;2022-12-18T01:43:05;8.30;57.70
25140;DHT22;39015;48.106;-1.682;2022-12-18T01:45:50;8.30;57.70
25140;DHT22;39015;48.106;-1.682;2022-12-18T01:48:36;8.30;57.70
25140;DHT22;39015;48.106;-1.682;2022-12-18T01:51:22;8.30;57.70
25140;DHT22;39015;48.106;-1.682;2022-12-18T01:54:07;8.30;57.70
25140;DHT22;39015;48.106;-1.682;2022-12-18T01:56:52;8.30;57.70
25140;DHT22;39015;48.106;-1.682;2022-12-18T01:59:38;8.30;57.70
25140;DHT22;39015;48.106;-1.682;2022-12-18T02:02:24;8.30;57.70
25140;DHT22;39015;48.106;-1.682;2022-12-18T02:05:13;8.30;57.70
25140;DHT22;39015;48.106;-1.682;2022-12-18T02:08:01;8.30;57.70
25140;DHT22;39015;48.106;-1.682;2022-12-18T02:10:51;8.30;57.70
25140;DHT22;39015;48.106;-1.682;2022-12-18T02:13:41;8.30;57.80
25140;DHT22;39015;48.106;-1.682;2022-12-18T02:16:29;8.20;57.80
25140;DHT22;39015;48.106;-1.682;2022-12-18T02:19:31;8.20;57.80
25140;DHT22;39015;48.106;-1.682;2022-12-18T02:22:29;8.20;57.80
25140;DHT22;39015;48.106;-1.682;2022-12-18T02:25:19;8.20;57.80
25140;DHT22;39015;48.106;-1.682;2022-12-18T02:28:13;8.20;57.80
25140;DHT22;39015;48.106;-1.682;2022-12-18T02:31:01;8.20;57.80
25140;DHT22;39015;48.106;-1.682;2022-12-18T02:33:47;8.20;57.80
25140;DHT22;39015;48.106;-1.682;2022-12-18T02:36:34;8.20;57.80
25140;DHT22;39015;48.106;-1.682;2022-12-18T02:39:20;8.20;57.90
25140;DHT22;39015;48.106;-1.682;2022-12-18T02:42:06;8.20;57.90
25140;DHT22;39015;48.106;-1.682;2022-12-18T02:44:53;8.20;57.90
25140;DHT22;39015;48.106;-1.682;2022-12-18T02:47:40;8.20;57.90
25140;DHT22;39015;48.106;-1.682;2022-12-18T02:50:26;8.20;57.90
25140;DHT22;39015;48.106;-1.682;2022-12-18T02:53:17;8.20;57.80
25140;DHT22;39015;48.106;-1.682;2022-12-18T02:56:05;8.20;57.90
25140;DHT22;39015;48.106;-1.682;2022-12-18T02:58:53;8.20;57.90
25140;DHT22;39015;48.106;-1.682;2022-12-18T03:01:42;8.20;57.90
25140;DHT22;39015;48.106;-1.682;2022-12-18T03:04:29;8.20;57.90
25140;DHT22;39015;48.106;-1.682;2022-12-18T03:07:16;8.20;57.90
25140;DHT22;39015;48.106;-1.682;2022-12-18T03:10:03;8.20;57.90
25140;DHT22;39015;48.106;-1.682;2022-12-18T03:12:51;8.20;57.80
25140;DHT22;39015;48.106;-1.682;2022-12-18T03:15:38;8.20;57.90
25140;DHT22;39015;48.106;-1.682;2022-12-18T03:18:30;8.20;57.80
25140;DHT22;39015;48.106;-1.682;2022-12-18T03:21:17;8.20;57.80
25140;DHT22;39015;48.106;-1.682;2022-12-18T03:24:05;8.20;57.90
25140;DHT22;39015;48.106;-1.682;2022-12-18T03:26:52;8.20;57.80
25140;DHT22;39015;48.106;-1.682;2022-12-18T03:29:40;8.20;57.80
25140;DHT22;39015;48.106;-1.682;2022-12-18T03:32:28;8.20;57.90
25140;DHT22;39015;48.106;-1.682;2022-12-18T03:35:16;8.20;57.80
25140;DHT22;39015;48.106;-1.682;2022-12-18T03:38:04;8.20;57.80
25140;DHT22;39015;48.106;-1.682;2022-12-18T03:40:51;8.20;57.80
25140;DHT22;39015;48.106;-1.682;2022-12-18T03:43:41;8.20;57.90
25140;DHT22;39015;48.106;-1.682;2022-12-18T03:46:30;8.20;57.90
25140;DHT22;39015;48.106;-1.682;2022-12-18T03:49:18;8.20;57.90
25140;DHT22;39015;48.106;-1.682;2022-12-18T03:52:09;8.20;57.90
25140;DHT22;39015;48.106;-1.682;2022-12-18T03:54:56;8.20;57.90
25140;DHT22;39015;48.106;-1.682;2022-12-18T03:57:42;8.20;57.90
25140;DHT22;39015;48.106;-1.682;2022-12-18T04:00:28;8.20;58.00
25140;DHT22;39015;48.106;-1.682;2022-12-18T04:03:14;8.20;58.00
25140;DHT22;39015;48.106;-1.682;2022-12-18T04:06:01;8.20;58.00
25140;DHT22;39015;48.106;-1.682;2022-12-18T04:08:48;8.20;58.00
25140;DHT22;39015;48.106;-1.682;2022-12-18T04:11:34;8.20;58.00
25140;DHT22;39015;48.106;-1.682;2022-12-18T04:14:19;8.20;58.80
25140;DHT22;39015;48.106;-1.682;2022-12-18T04:17:05;8.20;58.10
25140;DHT22;39015;48.106;-1.682;2022-12-18T04:19:50;8.20;58.10
25140;DHT22;39015;48.106;-1.682;2022-12-18T04:22:35;8.20;58.10
25140;DHT22;39015;48.106;-1.682;2022-12-18T04:25:22;8.20;58.10
25140;DHT22;39015;48.106;-1.682;2022-12-18T04:28:07;8.20;58.10
25140;DHT22;39015;48.106;-1.682;2022-12-18T04:30:53;8.20;58.10
25140;DHT22;39015;48.106;-1.682;2022-12-18T04:33:38;8.20;58.20
25140;DHT22;39015;48.106;-1.682;2022-12-18T04:36:24;8.20;58.20
25140;DHT22;39015;48.106;-1.682;2022-12-18T04:39:09;8.20;58.20
25140;DHT22;39015;48.106;-1.682;2022-12-18T04:41:56;8.20;58.20
25140;DHT22;39015;48.106;-1.682;2022-12-18T04:44:43;8.10;58.20
25140;DHT22;39015;48.106;-1.682;2022-12-18T04:47:29;8.10;58.20
25140;DHT22;39015;48.106;-1.682;2022-12-18T04:50:14;8.10;58.20
25140;DHT22;39015;48.106;-1.682;2022-12-18T04:52:59;8.10;58.20
25140;DHT22;39015;48.106;-1.682;2022-12-18T04:55:45;8.10;58.20
25140;DHT22;39015;48.106;-1.682;2022-12-18T04:58:31;8.10;58.30
25140;DHT22;39015;48.106;-1.682;2022-12-18T05:01:17;8.10;58.30
25140;DHT22;39015;48.106;-1.682;2022-12-18T05:04:03;8.10;58.30
25140;DHT22;39015;48.106;-1.682;2022-12-18T05:06:48;8.10;58.30
25140;DHT22;39015;48.106;-1.682;2022-12-18T05:09:33;8.10;58.40
25140;DHT22;39015;48.106;-1.682;2022-12-18T05:12:19;8.10;58.40
25140;DHT22;39015;48.106;-1.682;2022-12-18T05:15:06;8.20;58.40
25140;DHT22;39015;48.106;-1.682;2022-12-18T05:17:52;8.20;58.40
25140;DHT22;39015;48.106;-1.682;2022-12-18T05:20:37;8.20;58.40
25140;DHT22;39015;48.106;-1.682;2022-12-18T05:23:23;8.20;58.50
25140;DHT22;39015;48.106;-1.682;2022-12-18T05:26:08;8.20;58.50
25140;DHT22;39015;48.106;-1.682;2022-12-18T05:28:58;8.10;58.50
25140;DHT22;39015;48.106;-1.682;2022-12-18T05:31:45;8.20;58.50
25140;DHT22;39015;48.106;-1.682;2022-12-18T05:34:30;8.20;58.60
25140;DHT22;39015;48.106;-1.682;2022-12-18T05:37:17;8.10;58.50
25140;DHT22;39015;48.106;-1.682;2022-12-18T05:40:03;8.10;58.50
25140;DHT22;39015;48.106;-1.682;2022-12-18T05:42:48;8.10;58.60
25140;DHT22;39015;48.106;-1.682;2022-12-18T05:45:36;8.10;58.60
25140;DHT22;39015;48.106;-1.682;2022-12-18T05:48:23;8.20;58.70
25140;DHT22;39015;48.106;-1.682;2022-12-18T05:51:09;8.10;58.70
25140;DHT22;39015;48.106;-1.682;2022-12-18T05:53:55;8.10;58.70
25140;DHT22;39015;48.106;-1.682;2022-12-18T05:56:40;8.10;58.70
25140;DHT22;39015;48.106;-1.682;2022-12-18T05:59:25;8.10;58.70
25140;DHT22;39015;48.106;-1.682;2022-12-18T06:02:11;8.10;58.70
25140;DHT22;39015;48.106;-1.682;2022-12-18T06:04:58;8.10;58.80
25140;DHT22;39015;48.106;-1.682;2022-12-18T06:07:43;8.10;58.90
25140;DHT22;39015;48.106;-1.682;2022-12-18T06:10:28;8.20;59.60
25140;DHT22;39015;48.106;-1.682;2022-12-18T06:13:13;8.20;58.90
25140;DHT22;39015;48.106;-1.682;2022-12-18T06:16:01;8.20;59.00
25140;DHT22;39015;48.106;-1.682;2022-12-18T06:18:46;8.20;59.00
25140;DHT22;39015;48.106;-1.682;2022-12-18T06:21:33;8.20;59.00
25140;DHT22;39015;48.106;-1.682;2022-12-18T06:24:18;8.20;59.10
25140;DHT22;39015;48.106;-1.682;2022-12-18T06:27:03;8.20;59.20
25140;DHT22;39015;48.106;-1.682;2022-12-18T06:29:49;8.20;59.20
25140;DHT22;39015;48.106;-1.682;2022-12-18T06:32:34;8.20;59.30
25140;DHT22;39015;48.106;-1.682;2022-12-18T06:35:19;8.20;59.40
25140;DHT22;39015;48.106;-1.682;2022-12-18T06:38:06;8.20;59.40
25140;DHT22;39015;48.106;-1.682;2022-12-18T06:40:51;8.20;59.50
25140;DHT22;39015;48.106;-1.682;2022-12-18T06:43:37;8.20;59.50
25140;DHT22;39015;48.106;-1.682;2022-12-18T06:46:22;8.20;59.60
25140;DHT22;39015;48.106;-1.682;2022-12-18T06:49:08;8.10;59.50
25140;DHT22;39015;48.106;-1.682;2022-12-18T06:51:53;8.20;59.70
25140;DHT22;39015;48.106;-1.682;2022-12-18T06:54:40;8.20;59.70
25140;DHT22;39015;48.106;-1.682;2022-12-18T06:57:25;8.20;59.80
25140;DHT22;39015;48.106;-1.682;2022-12-18T07:00:11;8.20;59.90
25140;DHT22;39015;48.106;-1.682;2022-12-18T07:02:56;8.20;59.90
25140;DHT22;39015;48.106;-1.682;2022-12-18T07:05:41;8.20;60.00
25140;DHT22;39015;48.106;-1.682;2022-12-18T07:08:28;8.20;60.00
25140;DHT22;39015;48.106;-1.682;2022-12-18T07:11:15;8.20;60.00
25140;DHT22;39015;48.106;-1.682;2022-12-18T07:14:01;8.20;60.00
25140;DHT22;39015;48.106;-1.682;2022-12-18T07:16:46;8.20;60.10
25140;DHT22;39015;48.106;-1.682;2022-12-18T07:19:31;8.20;60.10
25140;DHT22;39015;48.106;-1.682;2022-12-18T07:22:17;8.20;60.20
25140;DHT22;39015;48.106;-1.682;2022-12-18T07:25:02;8.20;60.30
25140;DHT22;39015;48.106;-1.682;2022-12-18T07:27:50;8.20;60.40
25140;DHT22;39015;48.106;-1.682;2022-12-18T07:30:36;8.20;60.90
25140;DHT22;39015;48.106;-1.682;2022-12-18T07:33:21;8.30;60.70
25140;DHT22;39015;48.106;-1.682;2022-12-18T07:36:07;8.30;60.70
25140;DHT22;39015;48.106;-1.682;2022-12-18T07:38:52;8.30;60.90
25140;DHT22;39015;48.106;-1.682;2022-12-18T07:41:38;8.30;60.90
25140;DHT22;39015;48.106;-1.682;2022-12-18T07:44:27;8.30;61.00
25140;DHT22;39015;48.106;-1.682;2022-12-18T07:47:12;8.30;61.10
25140;DHT22;39015;48.106;-1.682;2022-12-18T07:49:58;8.30;61.10
25140;DHT22;39015;48.106;-1.682;2022-12-18T07:52:43;8.30;61.10
25140;DHT22;39015;48.106;-1.682;2022-12-18T07:55:28;8.30;61.20
25140;DHT22;39015;48.106;-1.682;2022-12-18T07:58:14;8.30;61.20
25140;DHT22;39015;48.106;-1.682;2022-12-18T08:01:03;8.30;61.30
25140;DHT22;39015;48.106;-1.682;2022-12-18T08:03:49;8.30;61.50
25140;DHT22;39015;48.106;-1.682;2022-12-18T08:06:34;8.30;61.50
25140;DHT22;39015;48.106;-1.682;2022-12-18T08:09:20;8.40;61.60
25140;DHT22;39015;48.106;-1.682;2022-12-18T08:12:05;8.40;61.60
25140;DHT22;39015;48.106;-1.682;2022-12-18T08:14:51;8.40;61.70
25140;DHT22;39015;48.106;-1.682;2022-12-18T08:17:38;8.40;61.70
25140;DHT22;39015;48.106;-1.682;2022-12-18T08:20:23;8.40;61.80
25140;DHT22;39015;48.106;-1.682;2022-12-18T08:23:08;8.40;61.90
25140;DHT22;39015;48.106;-1.682;2022-12-18T08:25:53;8.40;62.00
25140;DHT22;39015;48.106;-1.682;2022-12-18T08:28:38;8.40;62.10
25140;DHT22;39015;48.106;-1.682;2022-12-18T08:31:24;8.40;62.20
25140;DHT22;39015;48.106;-1.682;2022-12-18T08:34:11;8.40;62.20
25140;DHT22;39015;48.106;-1.682;2022-12-18T08:36:56;8.40;62.40
25140;DHT22;39015;48.106;-1.682;2022-12-18T08:39:42;8.40;62.30
25140;DHT22;39015;48.106;-1.682;2022-12-18T08:42:27;8.40;62.40
25140;DHT22;39015;48.106;-1.682;2022-12-18T08:45:30;8.40;62.60
25140;DHT22;39015;48.106;-1.682;2022-12-18T08:48:15;8.40;62.60
25140;DHT22;39015;48.106;-1.682;2022-12-18T08:51:02;8.40;62.70
25140;DHT22;39015;48.106;-1.682;2022-12-18T08:53:47;8.50;62.80
25140;DHT22;39015;48.106;-1.682;2022-12-18T08:56:33;8.40;62.80
25140;DHT22;39015;48.106;-1.682;2022-12-18T08:59:18;8.40;62.90
25140;DHT22;39015;48.106;-1.682;2022-12-18T09:02:04;8.50;63.00
25140;DHT22;39015;48.106;-1.682;2022-12-18T09:04:49;8.40;63.00
25140;DHT22;39015;48.106;-1.682;2022-12-18T09:07:35;8.50;63.00
25140;DHT22;39015;48.106;-1.682;2022-12-18T09:10:21;8.50;63.10
25140;DHT22;39015;48.106;-1.682;2022-12-18T09:13:07;8.50;63.30
25140;DHT22;39015;48.106;-1.682;2022-12-18T09:15:53;8.50;63.20
25140;DHT22;39015;48.106;-1.682;2022-12-18T09:18:38;8.50;63.30
25140;DHT22;39015;48.106;-1.682;2022-12-18T09:21:23;8.50;63.50
25140;DHT22;39015;48.106;-1.682;2022-12-18T09:24:11;8.50;63.40
25140;DHT22;39015;48.106;-1.682;2022-12-18T09:26:56;8.50;63.50
25140;DHT22;39015;48.106;-1.682;2022-12-18T09:29:42;8.50;63.60
25140;DHT22;39015;48.106;-1.682;2022-12-18T09:32:27;8.50;63.60
25140;DHT22;39015;48.106;-1.682;2022-12-18T09:35:12;8.50;63.80
25140;DHT22;39015;48.106;-1.682;2022-12-18T09:37:58;8.50;63.80
25140;DHT22;39015;48.106;-1.682;2022-12-18T09:40:45;8.50;64.10
25140;DHT22;39015;48.106;-1.682;2022-12-18T09:43:33;8.50;64.00
25140;DHT22;39015;48.106;-1.682;2022-12-18T09:46:22;8.50;64.00
25140;DHT22;39015;48.106;-1.682;2022-12-18T09:49:10;8.50;64.00
25140;DHT22;39015;48.106;-1.682;2022-12-18T09:51:57;8.50;64.10
25140;DHT22;39015;48.106;-1.682;2022-12-18T09:54:45;8.50;64.00
25140;DHT22;39015;48.106;-1.682;2022-12-18T09:57:34;8.50;64.10
25140;DHT22;39015;48.106;-1.682;2022-12-18T10:00:23;8.50;64.20
25140;DHT22;39015;48.106;-1.682;2022-12-18T10:03:09;8.50;64.30
25140;DHT22;39015;48.106;-1.682;2022-12-18T10:06:05;8.50;64.20
25140;DHT22;39015;48.106;-1.682;2022-12-18T10:08:53;8.60;64.30
25140;DHT22;39015;48.106;-1.682;2022-12-18T10:11:40;8.60;64.40
25140;DHT22;39015;48.106;-1.682;2022-12-18T10:14:33;8.60;64.30
25140;DHT22;39015;48.106;-1.682;2022-12-18T10:17:22;8.60;64.50
25140;DHT22;39015;48.106;-1.682;2022-12-18T10:20:10;8.60;64.50
25140;DHT22;39015;48.106;-1.682;2022-12-18T10:23:00;8.60;64.60
25140;DHT22;39015;48.106;-1.682;2022-12-18T10:25:51;8.60;64.60
25140;DHT22;39015;48.106;-1.682;2022-12-18T10:28:37;8.60;64.70
25140;DHT22;39015;48.106;-1.682;2022-12-18T10:31:25;8.60;64.80
25140;DHT22;39015;48.106;-1.682;2022-12-18T10:34:10;8.60;64.80
25140;DHT22;39015;48.106;-1.682;2022-12-18T10:36:56;8.60;64.80
25140;DHT22;39015;48.106;-1.682;2022-12-18T10:39:41;8.60;64.80
25140;DHT22;39015;48.106;-1.682;2022-12-18T10:42:27;8.60;65.10
25140;DHT22;39015;48.106;-1.682;2022-12-18T10:45:13;8.50;64.90
25140;DHT22;39015;48.106;-1.682;2022-12-18T10:48:00;8.60;65.10
25140;DHT22;39015;48.106;-1.682;2022-12-18T10:50:46;8.60;65.20
25140;DHT22;39015;48.106;-1.682;2022-12-18T10:53:33;8.60;65.20
25140;DHT22;39015;48.106;-1.682;2022-12-18T10:56:19;8.60;65.20
25140;DHT22;39015;48.106;-1.682;2022-12-18T10:59:05;8.60;65.30
25140;DHT22;39015;48.106;-1.682;2022-12-18T11:01:51;8.60;65.30
25140;DHT22;39015;48.106;-1.682;2022-12-18T11:04:49;8.60;65.30
25140;DHT22;39015;48.106;-1.682;2022-12-18T11:07:46;8.60;65.30
25140;DHT22;39015;48.106;-1.682;2022-12-18T11:10:32;8.60;65.40
25140;DHT22;39015;48.106;-1.682;2022-12-18T11:13:19;8.60;65.30
25140;DHT22;39015;48.106;-1.682;2022-12-18T11:16:06;8.60;65.40
25140;DHT22;39015;48.106;-1.682;2022-12-18T11:18:51;8.60;65.40
25140;DHT22;39015;48.106;-1.682;2022-12-18T11:21:40;8.60;65.50
25140;DHT22;39015;48.106;-1.682;2022-12-18T11:24:27;8.60;65.40
25140;DHT22;39015;48.106;-1.682;2022-12-18T11:27:15;8.70;65.60
25140;DHT22;39015;48.106;-1.682;2022-12-18T11:30:09;8.70;65.60
25140;DHT22;39015;48.106;-1.682;2022-12-18T11:33:02;8.70;65.60
25140;DHT22;39015;48.106;-1.682;2022-12-18T11:35:49;8.70;65.50
25140;DHT22;39015;48.106;-1.682;2022-12-18T11:38:37;8.70;65.80
25140;DHT22;39015;48.106;-1.682;2022-12-18T11:41:25;8.70;65.90
25140;DHT22;39015;48.106;-1.682;2022-12-18T11:44:45;8.70;65.80
25140;DHT22;39015;48.106;-1.682;2022-12-18T11:47:34;8.70;65.90
25140;DHT22;39015;48.106;-1.682;2022-12-18T11:50:23;8.70;66.00
25140;DHT22;39015;48.106;-1.682;2022-12-18T11:53:10;8.70;65.90
25140;DHT22;39015;48.106;-1.682;2022-12-18T11:56:00;8.70;66.00
25140;DHT22;39015;48.106;-1.682;2022-12-18T11:58:47;8.70;66.20
25140;DHT22;39015;48.106;-1.682;2022-12-18T12:01:37;8.70;66.20
25140;DHT22;39015;48.106;-1.682;2022-12-18T12:04:31;8.70;66.30
25140;DHT22;39015;48.106;-1.682;2022-12-18T12:07:23;8.70;66.40
25140;DHT22;39015;48.106;-1.682;2022-12-18T12:10:14;8.70;66.30
25140;DHT22;39015;48.106;-1.682;2022-12-18T12:13:11;8.70;66.30
25140;DHT22;39015;48.106;-1.682;2022-12-18T12:16:02;8.70;66.40
25140;DHT22;39015;48.106;-1.682;2022-12-18T12:18:53;8.70;66.60
25140;DHT22;39015;48.106;-1.682;2022-12-18T12:21:42;8.80;66.60
25140;DHT22;39015;48.106;-1.682;2022-12-18T12:24:34;8.70;66.70
25140;DHT22;39015;48.106;-1.682;2022-12-18T12:27:24;8.80;66.80
25140;DHT22;39015;48.106;-1.682;2022-12-18T12:30:16;8.80;66.80
25140;DHT22;39015;48.106;-1.682;2022-12-18T12:33:05;8.80;66.90
25140;DHT22;39015;48.106;-1.682;2022-12-18T12:35:55;8.80;66.70
25140;DHT22;39015;48.106;-1.682;2022-12-18T12:38:46;8.80;66.90
25140;DHT22;39015;48.106;-1.682;2022-12-18T12:41:34;8.80;66.90
25140;DHT22;39015;48.106;-1.682;2022-12-18T12:44:39;8.80;67.10
25140;DHT22;39015;48.106;-1.682;2022-12-18T12:47:29;8.70;67.10
25140;DHT22;39015;48.106;-1.682;2022-12-18T12:50:17;8.70;67.10
25140;DHT22;39015;48.106;-1.682;2022-12-18T12:53:05;8.80;67.20
25140;DHT22;39015;48.106;-1.682;2022-12-18T12:55:52;8.80;67.50
25140;DHT22;39015;48.106;-1.682;2022-12-18T12:58:41;8.80;67.50
25140;DHT22;39015;48.106;-1.682;2022-12-18T13:01:30;8.80;67.70
25140;DHT22;39015;48.106;-1.682;2022-12-18T13:04:21;8.80;67.70
25140;DHT22;39015;48.106;-1.682;2022-12-18T13:07:11;8.80;67.80
25140;DHT22;39015;48.106;-1.682;2022-12-18T13:10:14;8.80;68.00
25140;DHT22;39015;48.106;-1.682;2022-12-18T13:13:08;8.80;67.90
25140;DHT22;39015;48.106;-1.682;2022-12-18T13:16:03;8.80;67.90
25140;DHT22;39015;48.106;-1.682;2022-12-18T13:18:49;8.80;67.90
25140;DHT22;39015;48.106;-1.682;2022-12-18T13:21:37;8.90;68.10
25140;DHT22;39015;48.106;-1.682;2022-12-18T13:24:24;8.80;68.00
25140;DHT22;39015;48.106;-1.682;2022-12-18T13:27:25;8.90;68.20
25140;DHT22;39015;48.106;-1.682;2022-12-18T13:30:49;8.90;68.00
25140;DHT22;39015;48.106;-1.682;2022-12-18T13:33:36;8.90;68.20
25140;DHT22;39015;48.106;-1.682;2022-12-18T13:36:28;8.90;68.20
25140;DHT22;39015;48.106;-1.682;2022-12-18T13:45:42;8.90;68.20
25140;DHT22;39015;48.106;-1.682;2022-12-18T13:48:29;8.90;68.30
25140;DHT22;39015;48.106;-1.682;2022-12-18T13:51:16;8.90;68.30
25140;DHT22;39015;48.106;-1.682;2022-12-18T13:54:05;9.00;68.50
25140;DHT22;39015;48.106;-1.682;2022-12-18T13:56:56;8.90;68.40
25140;DHT22;39015;48.106;-1.682;2022-12-18T13:59:41;9.00;68.70
25140;DHT22;39015;48.106;-1.682;2022-12-18T14:02:28;9.00;68.70
25140;DHT22;39015;48.106;-1.682;2022-12-18T14:05:21;9.00;68.70
25140;DHT22;39015;48.106;-1.682;2022-12-18T14:08:08;9.00;68.90
25140;DHT22;39015;48.106;-1.682;2022-12-18T14:10:55;9.00;69.00
25140;DHT22;39015;48.106;-1.682;2022-12-18T14:13:41;9.00;68.90
25140;DHT22;39015;48.106;-1.682;2022-12-18T14:16:27;9.00;69.00
25140;DHT22;39015;48.106;-1.682;2022-12-18T14:19:15;9.00;68.90
25140;DHT22;39015;48.106;-1.682;2022-12-18T14:22:02;9.00;69.00
25140;DHT22;39015;48.106;-1.682;2022-12-18T14:25:04;9.00;69.10
25140;DHT22;39015;48.106;-1.682;2022-12-18T14:27:50;9.10;69.10
25140;DHT22;39015;48.106;-1.682;2022-12-18T14:30:37;9.10;69.10
25140;DHT22;39015;48.106;-1.682;2022-12-18T14:33:23;9.10;69.40
25140;DHT22;39015;48.106;-1.682;2022-12-18T14:36:15;9.10;69.20
25140;DHT22;39015;48.106;-1.682;2022-12-18T14:39:01;9.10;69.40
25140;DHT22;39015;48.106;-1.682;2022-12-18T14:41:48;9.10;69.60
25140;DHT22;39015;48.106;-1.682;2022-12-18T14:44:33;9.10;69.60
25140;DHT22;39015;48.106;-1.682;2022-12-18T14:47:18;9.10;69.80
25140;DHT22;39015;48.106;-1.682;2022-12-18T14:50:04;9.10;69.70
25140;DHT22;39015;48.106;-1.682;2022-12-18T14:52:57;9.10;69.70
25140;DHT22;39015;48.106;-1.682;2022-12-18T14:55:43;9.10;69.70
25140;DHT22;39015;48.106;-1.682;2022-12-18T14:58:30;9.10;69.90
25140;DHT22;39015;48.106;-1.682;2022-12-18T15:01:23;9.10;70.00
25140;DHT22;39015;48.106;-1.682;2022-12-18T15:04:23;9.10;69.80
25140;DHT22;39015;48.106;-1.682;2022-12-18T15:07:11;9.20;69.90
25140;DHT22;39015;48.106;-1.682;2022-12-18T15:10:02;9.20;70.10
25140;DHT22;39015;48.106;-1.682;2022-12-18T15:12:49;9.20;70.00
25140;DHT22;39015;48.106;-1.682;2022-12-18T15:15:44;9.10;70.00
25140;DHT22;39015;48.106;-1.682;2022-12-18T15:18:30;9.20;70.20
25140;DHT22;39015;48.106;-1.682;2022-12-18T15:21:17;9.20;70.10
25140;DHT22;39015;48.106;-1.682;2022-12-18T15:24:03;9.20;70.30
25140;DHT22;39015;48.106;-1.682;2022-12-18T15:26:50;9.20;70.40
25140;DHT22;39015;48.106;-1.682;2022-12-18T15:29:35;9.20;70.30
25140;DHT22;39015;48.106;-1.682;2022-12-18T15:32:20;9.20;70.30
25140;DHT22;39015;48.106;-1.682;2022-12-18T15:35:08;9.20;70.30
25140;DHT22;39015;48.106;-1.682;2022-12-18T15:37:56;9.30;70.50
25140;DHT22;39015;48.106;-1.682;2022-12-18T15:40:41;9.30;70.40
25140;DHT22;39015;48.106;-1.682;2022-12-18T15:43:10;9.30;70.50
25140;DHT22;39015;48.106;-1.682;2022-12-18T15:45:54;9.30;70.50
25140;DHT22;39015;48.106;-1.682;2022-12-18T15:48:22;9.30;70.50
25140;DHT22;39015;48.106;-1.682;2022-12-18T15:50:49;9.40;70.50
25140;DHT22;39015;48.106;-1.682;2022-12-18T15:53:16;9.40;70.50
25140;DHT22;39015;48.106;-1.682;2022-12-18T15:55:44;9.40;70.30
25140;DHT22;39015;48.106;-1.682;2022-12-18T15:58:29;9.40;70.40
25140;DHT22;39015;48.106;-1.682;2022-12-18T16:00:56;9.40;70.50
25140;DHT22;39015;48.106;-1.682;2022-12-18T16:03:23;9.40;70.70
25140;DHT22;39015;48.106;-1.682;2022-12-18T16:05:50;9.40;70.80
25140;DHT22;39015;48.106;-1.682;2022-12-18T16:08:17;9.40;70.80
25140;DHT22;39015;48.106;-1.682;2022-12-18T16:10:44;9.40;71.00
25140;DHT22;39015;48.106;-1.682;2022-12-18T16:13:11;9.50;71.10
25140;DHT22;39015;48.106;-1.682;2022-12-18T16:15:39;9.50;71.10
25140;DHT22;39015;48.106;-1.682;2022-12-18T16:18:06;9.50;71.10
25140;DHT22;39015;48.106;-1.682;2022-12-18T16:20:33;9.50;71.30
25140;DHT22;39015;48.106;-1.682;2022-12-18T16:23:02;9.50;71.20
25140;DHT22;39015;48.106;-1.682;2022-12-18T16:25:37;9.50;71.30
25140;DHT22;39015;48.106;-1.682;2022-12-18T16:28:11;9.50;71.20
25140;DHT22;39015;48.106;-1.682;2022-12-18T16:30:43;9.50;71.30
25140;DHT22;39015;48.106;-1.682;2022-12-18T16:33:10;9.50;71.30
25140;DHT22;39015;48.106;-1.682;2022-12-18T16:35:37;9.50;71.40
25140;DHT22;39015;48.106;-1.682;2022-12-18T16:38:04;9.50;71.30
25140;DHT22;39015;48.106;-1.682;2022-12-18T16:40:31;9.50;71.40
25140;DHT22;39015;48.106;-1.682;2022-12-18T16:42:58;9.50;71.30
25140;DHT22;39015;48.106;-1.682;2022-12-18T16:45:26;9.50;71.50
25140;DHT22;39015;48.106;-1.682;2022-12-18T16:47:59;9.60;72.00
25140;DHT22;39015;48.106;-1.682;2022-12-18T16:50:26;9.50;72.40
25140;DHT22;39015;48.106;-1.682;2022-12-18T16:52:53;9.50;72.20
25140;DHT22;39015;48.106;-1.682;2022-12-18T16:55:20;9.50;72.30
25140;DHT22;39015;48.106;-1.682;2022-12-18T16:57:46;9.50;72.30
25140;DHT22;39015;48.106;-1.682;2022-12-18T17:00:14;9.60;72.30
25140;DHT22;39015;48.106;-1.682;2022-12-18T17:02:40;9.60;72.50
25140;DHT22;39015;48.106;-1.682;2022-12-18T17:05:09;9.60;72.60
25140;DHT22;39015;48.106;-1.682;2022-12-18T17:07:35;9.60;72.80
25140;DHT22;39015;48.106;-1.682;2022-12-18T17:10:02;9.60;72.80
25140;DHT22;39015;48.106;-1.682;2022-12-18T17:12:29;9.60;72.80
25140;DHT22;39015;48.106;-1.682;2022-12-18T17:14:56;9.60;73.20
25140;DHT22;39015;48.106;-1.682;2022-12-18T17:17:23;9.60;73.20
25140;DHT22;39015;48.106;-1.682;2022-12-18T17:19:50;9.60;73.30
25140;DHT22;39015;48.106;-1.682;2022-12-18T17:22:19;9.60;73.50
25140;DHT22;39015;48.106;-1.682;2022-12-18T17:24:46;9.60;74.00
25140;DHT22;39015;48.106;-1.682;2022-12-18T17:27:13;9.60;73.80
25140;DHT22;39015;48.106;-1.682;2022-12-18T17:29:40;9.60;73.80